메인 페이지
METAR-TAF:

METAR-TAF

공항 :

자유주의, 캔자스, 미국

위도: 37-03N, 경도: 100-58W, 고도: 879m

현재 날씨관측

예보는 25분 전, 18:56시(UTC)에 발표되었습니다.
24kt, 순간 최대 풍속 29kt
온도 22°C
습도 25%
기압 1009 hPa
시정: 16.1km
맑음

METAR: KLBL 191856Z AUTO 18024G29KT 10SM CLR 22/01 A2980 RMK AO2 PK WND 18029/1855 SLP081 T02220011

시각: 13:21 (19:21 UTC)

예보

예보는 2 시간 1분 전, 17:20시(UTC)에 발표되었습니다.
예보 대상 시간: 19일 18시부터 20일 18시까지 (UTC)
15kt, 순간 최대 풍속 25kt
시정: 10km
맑음
19일 2300시부터 (UTC)
남남동15kt
시정: 10km
맑음
20일 0800시부터 (UTC)
남남동12kt
시정: 10km
고도 25000ft 상공 구름 조금
20일 1500시부터 (UTC)
15kt
시정: 10km
고도 12000ft 상공 흐림

TAF: KLBL 191720Z 1918/2018 17015G25KT P6SM SKC FM192300 15015KT P6SM SKC FM200800 16012KT P6SM FEW250 FM201500 17015KT P6SM OVC120

4,000개 이상의 공항 관측 자료 및 예보 (METAR 및 TAF 보고).

지도상에서 검색 가능한 기상관측소가 노란 점과 빨간 점으로 표시되어 있습니다.

기상관측소 명을 보려면 표시 위로 마우스를 이동하세요.

날씨 관측과 예보를 보려면 클릭하세요.

지도 변경 : 확대하려면 엑스 표시가 있는 녹색 버튼, 축소하려면 빼기 표시가 있는 녹색 버튼, 다음 페이지의 지도를 보려면 녹색 화살표를 클릭하세요.


METAR-TAF: